sensor_id;sensor_type;location;lat;lon;timestamp;pressure;altitude;pressure_sealevel;temperature;humidity
50790;BME280;37287;47.554;7.844;2023-08-20T00:01:37;98148.72;;;22.70;81.22
50790;BME280;37287;47.554;7.844;2023-08-20T00:04:04;98149.94;;;22.69;80.88
50790;BME280;37287;47.554;7.844;2023-08-20T00:06:31;98142.31;;;22.73;81.07
50790;BME280;37287;47.554;7.844;2023-08-20T00:08:59;98144.56;;;22.65;80.85
50790;BME280;37287;47.554;7.844;2023-08-20T00:11:26;98154.69;;;22.68;80.68
50790;BME280;37287;47.554;7.844;2023-08-20T00:13:53;98146.44;;;22.68;80.50
50790;BME280;37287;47.554;7.844;2023-08-20T00:16:20;98151.94;;;22.68;80.78
50790;BME280;37287;47.554;7.844;2023-08-20T00:18:48;98152.59;;;22.72;80.11
50790;BME280;37287;47.554;7.844;2023-08-20T00:21:15;98144.13;;;22.44;81.45
50790;BME280;37287;47.554;7.844;2023-08-20T00:23:46;98143.63;;;22.24;83.56
50790;BME280;37287;47.554;7.844;2023-08-20T00:26:13;98151.44;;;22.25;85.60
50790;BME280;37287;47.554;7.844;2023-08-20T00:28:39;98145.94;;;22.25;85.90
50790;BME280;37287;47.554;7.844;2023-08-20T00:31:07;98144.91;;;22.32;86.56
50790;BME280;37287;47.554;7.844;2023-08-20T00:33:34;98143.19;;;22.25;85.26
50790;BME280;37287;47.554;7.844;2023-08-20T00:36:00;98144.78;;;22.13;85.18
50790;BME280;37287;47.554;7.844;2023-08-20T00:38:29;98145.44;;;22.18;84.90
50790;BME280;37287;47.554;7.844;2023-08-20T00:40:58;98135.41;;;22.11;84.32
50790;BME280;37287;47.554;7.844;2023-08-20T00:43:28;98138.38;;;22.16;84.48
50790;BME280;37287;47.554;7.844;2023-08-20T00:45:58;98138.13;;;22.24;83.58
50790;BME280;37287;47.554;7.844;2023-08-20T00:48:25;98138.38;;;22.16;83.69
50790;BME280;37287;47.554;7.844;2023-08-20T00:50:54;98144.28;;;22.28;83.61
50790;BME280;37287;47.554;7.844;2023-08-20T00:53:27;98142.31;;;22.28;82.70
50790;BME280;37287;47.554;7.844;2023-08-20T00:55:54;98143.97;;;22.26;82.84
50790;BME280;37287;47.554;7.844;2023-08-20T00:58:20;98139.00;;;22.21;82.79
50790;BME280;37287;47.554;7.844;2023-08-20T01:00:47;98127.28;;;22.07;83.42
50790;BME280;37287;47.554;7.844;2023-08-20T01:03:14;98128.09;;;21.95;84.35
50790;BME280;37287;47.554;7.844;2023-08-20T01:05:48;98123.28;;;21.86;85.44
50790;BME280;37287;47.554;7.844;2023-08-20T01:08:26;98133.41;;;21.89;86.72
50790;BME280;37287;47.554;7.844;2023-08-20T01:11:17;98134.50;;;21.92;87.17
50790;BME280;37287;47.554;7.844;2023-08-20T01:13:54;98150.53;;;22.06;87.95
50790;BME280;37287;47.554;7.844;2023-08-20T01:16:24;98147.53;;;22.13;89.17
50790;BME280;37287;47.554;7.844;2023-08-20T01:18:51;98149.41;;;22.16;87.64
50790;BME280;37287;47.554;7.844;2023-08-20T01:21:28;98158.25;;;22.11;89.58
50790;BME280;37287;47.554;7.844;2023-08-20T01:24:11;98158.56;;;22.13;92.56
50790;BME280;37287;47.554;7.844;2023-08-20T01:27:00;98163.44;;;22.09;93.21
50790;BME280;37287;47.554;7.844;2023-08-20T01:29:31;98160.38;;;22.07;91.53
50790;BME280;37287;47.554;7.844;2023-08-20T01:32:00;98157.59;;;22.07;89.97
50790;BME280;37287;47.554;7.844;2023-08-20T01:34:27;98159.13;;;22.08;89.35
50790;BME280;37287;47.554;7.844;2023-08-20T01:36:54;98164.63;;;22.08;89.92
50790;BME280;37287;47.554;7.844;2023-08-20T01:39:21;98161.56;;;22.06;90.36
50790;BME280;37287;47.554;7.844;2023-08-20T01:41:47;98171.84;;;22.06;91.17
50790;BME280;37287;47.554;7.844;2023-08-20T01:44:14;98174.16;;;22.07;92.23
50790;BME280;37287;47.554;7.844;2023-08-20T01:46:40;98182.22;;;22.02;89.18
50790;BME280;37287;47.554;7.844;2023-08-20T01:49:09;98179.00;;;22.03;88.68
50790;BME280;37287;47.554;7.844;2023-08-20T01:51:42;98179.91;;;22.00;87.86
50790;BME280;37287;47.554;7.844;2023-08-20T01:54:08;98188.94;;;22.01;91.31
50790;BME280;37287;47.554;7.844;2023-08-20T01:56:35;98199.53;;;22.02;89.96
50790;BME280;37287;47.554;7.844;2023-08-20T01:59:06;98196.56;;;21.96;88.50
50790;BME280;37287;47.554;7.844;2023-08-20T02:01:32;98200.97;;;21.94;88.72
50790;BME280;37287;47.554;7.844;2023-08-20T02:03:59;98197.91;;;21.92;89.44
50790;BME280;37287;47.554;7.844;2023-08-20T02:06:25;98205.50;;;21.88;87.89
50790;BME280;37287;47.554;7.844;2023-08-20T02:08:54;98201.03;;;21.68;87.38
50790;BME280;37287;47.554;7.844;2023-08-20T02:11:21;98202.66;;;21.27;89.98
50790;BME280;37287;47.554;7.844;2023-08-20T02:13:49;98201.00;;;21.17;90.88
50790;BME280;37287;47.554;7.844;2023-08-20T02:16:15;98203.09;;;21.12;91.27
50790;BME280;37287;47.554;7.844;2023-08-20T02:18:43;98202.31;;;21.12;91.25
50790;BME280;37287;47.554;7.844;2023-08-20T02:21:12;98201.13;;;21.26;91.31
50790;BME280;37287;47.554;7.844;2023-08-20T02:23:39;98201.78;;;21.30;93.01
50790;BME280;37287;47.554;7.844;2023-08-20T02:26:05;98205.72;;;21.42;93.63
50790;BME280;37287;47.554;7.844;2023-08-20T02:28:34;98208.28;;;21.49;94.87
50790;BME280;37287;47.554;7.844;2023-08-20T02:31:07;98199.03;;;21.43;91.88
50790;BME280;37287;47.554;7.844;2023-08-20T02:33:34;98200.56;;;21.18;91.84
50790;BME280;37287;47.554;7.844;2023-08-20T02:36:04;98191.41;;;21.08;93.79
50790;BME280;37287;47.554;7.844;2023-08-20T02:38:31;98202.53;;;21.18;94.15
50790;BME280;37287;47.554;7.844;2023-08-20T02:41:00;98201.69;;;21.21;92.35
50790;BME280;37287;47.554;7.844;2023-08-20T02:43:31;98199.78;;;21.30;91.63
50790;BME280;37287;47.554;7.844;2023-08-20T02:45:58;98194.41;;;21.40;91.54
50790;BME280;37287;47.554;7.844;2023-08-20T02:48:24;98202.44;;;21.21;90.88
50790;BME280;37287;47.554;7.844;2023-08-20T02:50:56;98200.66;;;21.02;92.35
50790;BME280;37287;47.554;7.844;2023-08-20T02:53:22;98194.47;;;20.98;93.17
50790;BME280;37287;47.554;7.844;2023-08-20T02:55:49;98193.56;;;20.88;93.87
50790;BME280;37287;47.554;7.844;2023-08-20T02:58:17;98202.19;;;20.90;93.76
50790;BME280;37287;47.554;7.844;2023-08-20T03:00:44;98203.63;;;20.94;93.39
50790;BME280;37287;47.554;7.844;2023-08-20T03:03:11;98196.56;;;21.06;92.42
50790;BME280;37287;47.554;7.844;2023-08-20T03:05:42;98200.88;;;20.94;91.92
50790;BME280;37287;47.554;7.844;2023-08-20T03:08:09;98193.25;;;20.86;92.44
50790;BME280;37287;47.554;7.844;2023-08-20T03:10:36;98184.81;;;20.64;93.83
50790;BME280;37287;47.554;7.844;2023-08-20T03:13:05;98185.97;;;20.50;94.96
50790;BME280;37287;47.554;7.844;2023-08-20T03:17:59;98193.69;;;20.55;96.02
50790;BME280;37287;47.554;7.844;2023-08-20T03:20:27;98183.69;;;20.61;95.37
50790;BME280;37287;47.554;7.844;2023-08-20T03:22:54;98187.50;;;20.67;95.78
50790;BME280;37287;47.554;7.844;2023-08-20T03:25:23;98184.84;;;20.76;95.38
50790;BME280;37287;47.554;7.844;2023-08-20T03:27:56;98192.81;;;20.87;95.18
50790;BME280;37287;47.554;7.844;2023-08-20T03:30:23;98197.22;;;20.98;98.09
50790;BME280;37287;47.554;7.844;2023-08-20T03:32:49;98190.84;;;21.01;97.91
50790;BME280;37287;47.554;7.844;2023-08-20T03:35:16;98185.25;;;21.04;96.57
50790;BME280;37287;47.554;7.844;2023-08-20T03:37:43;98186.19;;;20.85;94.72
50790;BME280;37287;47.554;7.844;2023-08-20T03:40:10;98183.00;;;20.57;96.10
50790;BME280;37287;47.554;7.844;2023-08-20T03:42:36;98174.53;;;20.51;96.96
50790;BME280;37287;47.554;7.844;2023-08-20T03:45:04;98179.78;;;20.45;97.26
50790;BME280;37287;47.554;7.844;2023-08-20T03:47:30;98178.25;;;20.44;97.04
50790;BME280;37287;47.554;7.844;2023-08-20T03:50:00;98181.06;;;20.28;98.23
50790;BME280;37287;47.554;7.844;2023-08-20T03:52:28;98177.78;;;20.33;98.49
50790;BME280;37287;47.554;7.844;2023-08-20T03:54:55;98183.69;;;20.32;98.82
50790;BME280;37287;47.554;7.844;2023-08-20T03:57:22;98177.78;;;20.33;99.46
50790;BME280;37287;47.554;7.844;2023-08-20T03:59:48;98184.00;;;20.21;99.31
50790;BME280;37287;47.554;7.844;2023-08-20T04:02:15;98185.22;;;20.03;99.97
50790;BME280;37287;47.554;7.844;2023-08-20T04:04:45;98187.81;;;19.94;100.00
50790;BME280;37287;47.554;7.844;2023-08-20T04:07:12;98189.13;;;19.89;100.00
50790;BME280;37287;47.554;7.844;2023-08-20T04:09:38;98198.44;;;19.92;100.00
50790;BME280;37287;47.554;7.844;2023-08-20T04:12:08;98197.69;;;19.91;100.00
50790;BME280;37287;47.554;7.844;2023-08-20T04:14:34;98195.38;;;19.90;100.00
50790;BME280;37287;47.554;7.844;2023-08-20T04:17:03;98204.91;;;19.85;100.00
50790;BME280;37287;47.554;7.844;2023-08-20T04:19:34;98201.91;;;19.80;100.00
50790;BME280;37287;47.554;7.844;2023-08-20T04:22:00;98204.38;;;19.74;100.00
50790;BME280;37287;47.554;7.844;2023-08-20T04:24:29;98209.25;;;19.66;100.00
50790;BME280;37287;47.554;7.844;2023-08-20T04:27:00;98201.25;;;19.72;100.00
50790;BME280;37287;47.554;7.844;2023-08-20T04:29:27;98210.13;;;19.96;100.00
50790;BME280;37287;47.554;7.844;2023-08-20T04:31:54;98203.59;;;20.06;100.00
50790;BME280;37287;47.554;7.844;2023-08-20T04:34:22;98212.34;;;20.18;100.00
50790;BME280;37287;47.554;7.844;2023-08-20T04:36:49;98216.63;;;20.19;100.00
50790;BME280;37287;47.554;7.844;2023-08-20T04:39:15;98211.91;;;20.19;100.00
50790;BME280;37287;47.554;7.844;2023-08-20T04:41:44;98212.63;;;19.90;100.00
50790;BME280;37287;47.554;7.844;2023-08-20T04:44:10;98200.50;;;19.71;100.00
50790;BME280;37287;47.554;7.844;2023-08-20T04:46:39;98192.94;;;19.59;100.00
50790;BME280;37287;47.554;7.844;2023-08-20T04:49:10;98191.06;;;19.56;100.00
50790;BME280;37287;47.554;7.844;2023-08-20T04:51:37;98196.03;;;19.61;100.00
50790;BME280;37287;47.554;7.844;2023-08-20T04:54:03;98200.56;;;19.68;100.00
50790;BME280;37287;47.554;7.844;2023-08-20T04:56:32;98206.00;;;19.71;100.00
50790;BME280;37287;47.554;7.844;2023-08-20T04:59:01;98208.25;;;19.76;100.00
50790;BME280;37287;47.554;7.844;2023-08-20T05:01:28;98204.03;;;19.88;100.00
50790;BME280;37287;47.554;7.844;2023-08-20T05:03:56;98206.44;;;20.03;100.00
50790;BME280;37287;47.554;7.844;2023-08-20T05:06:23;98208.38;;;20.19;100.00
50790;BME280;37287;47.554;7.844;2023-08-20T05:08:50;98214.53;;;20.39;100.00
50790;BME280;37287;47.554;7.844;2023-08-20T05:11:22;98213.63;;;20.59;100.00
50790;BME280;37287;47.554;7.844;2023-08-20T05:13:49;98212.13;;;20.71;100.00
50790;BME280;37287;47.554;7.844;2023-08-20T05:16:16;98222.81;;;20.69;99.51
50790;BME280;37287;47.554;7.844;2023-08-20T05:18:44;98221.75;;;20.62;99.45
50790;BME280;37287;47.554;7.844;2023-08-20T05:21:11;98223.84;;;20.58;99.79
50790;BME280;37287;47.554;7.844;2023-08-20T05:23:40;98223.75;;;20.62;100.00
50790;BME280;37287;47.554;7.844;2023-08-20T05:26:08;98225.81;;;20.58;99.54
50790;BME280;37287;47.554;7.844;2023-08-20T05:28:35;98225.94;;;20.54;99.05
50790;BME280;37287;47.554;7.844;2023-08-20T05:31:02;98225.34;;;20.47;99.09
50790;BME280;37287;47.554;7.844;2023-08-20T05:33:32;98233.25;;;20.44;100.00
50790;BME280;37287;47.554;7.844;2023-08-20T05:36:01;98232.72;;;20.50;100.00
50790;BME280;37287;47.554;7.844;2023-08-20T05:38:27;98238.34;;;20.75;100.00
50790;BME280;37287;47.554;7.844;2023-08-20T05:40:56;98230.75;;;20.79;100.00
50790;BME280;37287;47.554;7.844;2023-08-20T05:43:23;98236.75;;;21.04;100.00
50790;BME280;37287;47.554;7.844;2023-08-20T05:45:50;98239.00;;;21.47;98.87
50790;BME280;37287;47.554;7.844;2023-08-20T05:48:21;98252.81;;;21.86;97.73
50790;BME280;37287;47.554;7.844;2023-08-20T05:50:48;98250.63;;;22.29;97.35
50790;BME280;37287;47.554;7.844;2023-08-20T05:53:15;98247.06;;;22.76;95.41
50790;BME280;37287;47.554;7.844;2023-08-20T05:55:42;98247.31;;;23.13;93.08
50790;BME280;37287;47.554;7.844;2023-08-20T05:58:08;98244.44;;;23.48;91.97
50790;BME280;37287;47.554;7.844;2023-08-20T06:00:35;98248.50;;;23.75;91.33
50790;BME280;37287;47.554;7.844;2023-08-20T06:03:03;98259.66;;;24.03;90.28
50790;BME280;37287;47.554;7.844;2023-08-20T06:05:30;98260.66;;;24.28;90.36
50790;BME280;37287;47.554;7.844;2023-08-20T06:07:57;98266.81;;;24.50;88.13
50790;BME280;37287;47.554;7.844;2023-08-20T06:10:23;98268.66;;;24.81;87.02
50790;BME280;37287;47.554;7.844;2023-08-20T06:12:50;98261.53;;;25.08;85.86
50790;BME280;37287;47.554;7.844;2023-08-20T06:15:17;98268.28;;;25.26;85.35
50790;BME280;37287;47.554;7.844;2023-08-20T06:17:45;98272.53;;;25.54;83.82
50790;BME280;37287;47.554;7.844;2023-08-20T06:20:12;98270.28;;;25.77;83.27
50790;BME280;37287;47.554;7.844;2023-08-20T06:22:39;98261.97;;;26.11;80.84
50790;BME280;37287;47.554;7.844;2023-08-20T06:25:06;98264.13;;;26.31;80.35
50790;BME280;37287;47.554;7.844;2023-08-20T06:27:32;98254.38;;;26.35;78.90
50790;BME280;37287;47.554;7.844;2023-08-20T06:30:01;98263.75;;;26.38;79.34
50790;BME280;37287;47.554;7.844;2023-08-20T06:32:29;98262.88;;;26.56;79.07
50790;BME280;37287;47.554;7.844;2023-08-20T06:34:56;98263.50;;;26.75;78.36
50790;BME280;37287;47.554;7.844;2023-08-20T06:37:22;98263.91;;;26.98;76.71
50790;BME280;37287;47.554;7.844;2023-08-20T06:39:51;98265.06;;;27.21;75.39
50790;BME280;37287;47.554;7.844;2023-08-20T06:42:17;98264.19;;;27.29;74.09
50790;BME280;37287;47.554;7.844;2023-08-20T06:44:44;98275.03;;;27.27;74.26
50790;BME280;37287;47.554;7.844;2023-08-20T06:47:11;98274.47;;;27.23;74.50
50790;BME280;37287;47.554;7.844;2023-08-20T06:49:38;98272.53;;;27.29;73.69
50790;BME280;37287;47.554;7.844;2023-08-20T06:52:04;98268.25;;;27.43;72.87
50790;BME280;37287;47.554;7.844;2023-08-20T06:54:33;98267.28;;;27.47;71.91
50790;BME280;37287;47.554;7.844;2023-08-20T06:57:02;98266.22;;;27.44;72.22
50790;BME280;37287;47.554;7.844;2023-08-20T06:59:28;98270.78;;;27.77;70.34
50790;BME280;37287;47.554;7.844;2023-08-20T07:01:57;98269.50;;;27.78;69.68
50790;BME280;37287;47.554;7.844;2023-08-20T07:04:24;98265.34;;;27.53;70.16
50790;BME280;37287;47.554;7.844;2023-08-20T07:06:51;98264.41;;;27.41;70.74
50790;BME280;37287;47.554;7.844;2023-08-20T07:09:18;98261.06;;;27.37;70.94
50790;BME280;37287;47.554;7.844;2023-08-20T07:11:44;98265.81;;;27.51;69.82
50790;BME280;37287;47.554;7.844;2023-08-20T07:14:14;98268.50;;;27.45;69.71
50790;BME280;37287;47.554;7.844;2023-08-20T07:16:41;98282.19;;;27.34;70.27
50790;BME280;37287;47.554;7.844;2023-08-20T07:19:08;98275.78;;;27.28;69.48
50790;BME280;37287;47.554;7.844;2023-08-20T07:21:34;98274.56;;;27.29;69.72
50790;BME280;37287;47.554;7.844;2023-08-20T07:24:01;98269.88;;;27.20;70.19
50790;BME280;37287;47.554;7.844;2023-08-20T07:26:27;98277.06;;;27.12;70.97
50790;BME280;37287;47.554;7.844;2023-08-20T07:28:54;98285.75;;;27.20;70.35
50790;BME280;37287;47.554;7.844;2023-08-20T07:31:27;98284.72;;;27.32;69.14
50790;BME280;37287;47.554;7.844;2023-08-20T07:33:55;98279.44;;;27.49;68.33
50790;BME280;37287;47.554;7.844;2023-08-20T07:36:24;98280.75;;;27.69;66.61
50790;BME280;37287;47.554;7.844;2023-08-20T07:38:53;98278.81;;;27.75;65.36
50790;BME280;37287;47.554;7.844;2023-08-20T07:41:20;98281.03;;;27.71;65.26
50790;BME280;37287;47.554;7.844;2023-08-20T07:44:12;98284.38;;;27.75;64.88
50790;BME280;37287;47.554;7.844;2023-08-20T07:46:40;98284.38;;;27.75;64.34
50790;BME280;37287;47.554;7.844;2023-08-20T07:49:09;98286.31;;;27.69;64.33
50790;BME280;37287;47.554;7.844;2023-08-20T07:51:35;98285.53;;;27.68;64.26
50790;BME280;37287;47.554;7.844;2023-08-20T07:54:02;98284.38;;;27.75;63.69
50790;BME280;37287;47.554;7.844;2023-08-20T07:56:28;98280.56;;;27.72;64.41
50790;BME280;37287;47.554;7.844;2023-08-20T07:58:55;98282.53;;;27.87;62.96
50790;BME280;37287;47.554;7.844;2023-08-20T08:01:24;98286.59;;;27.71;63.94
50790;BME280;37287;47.554;7.844;2023-08-20T08:03:52;98281.25;;;27.67;64.55
50790;BME280;37287;47.554;7.844;2023-08-20T08:06:19;98283.81;;;27.71;64.24
50790;BME280;37287;47.554;7.844;2023-08-20T08:08:49;98284.38;;;27.75;63.88
50790;BME280;37287;47.554;7.844;2023-08-20T08:11:16;98282.84;;;27.74;64.38
50790;BME280;37287;47.554;7.844;2023-08-20T08:13:44;98287.31;;;27.66;64.67
50790;BME280;37287;47.554;7.844;2023-08-20T08:16:11;98286.50;;;27.65;64.63
50790;BME280;37287;47.554;7.844;2023-08-20T08:18:38;98280.63;;;27.78;64.47
50790;BME280;37287;47.554;7.844;2023-08-20T08:21:04;98285.69;;;27.94;63.04
50790;BME280;37287;47.554;7.844;2023-08-20T08:23:31;98282.00;;;28.18;63.01
50790;BME280;37287;47.554;7.844;2023-08-20T08:25:58;98287.47;;;28.33;62.40
50790;BME280;37287;47.554;7.844;2023-08-20T08:28:24;98296.53;;;28.28;63.03
50790;BME280;37287;47.554;7.844;2023-08-20T08:30:51;98287.22;;;28.31;62.72
50790;BME280;37287;47.554;7.844;2023-08-20T08:33:18;98293.47;;;28.26;63.42
50790;BME280;37287;47.554;7.844;2023-08-20T08:35:44;98292.16;;;28.21;63.99
50790;BME280;37287;47.554;7.844;2023-08-20T08:38:16;98294.28;;;28.11;64.48
50790;BME280;37287;47.554;7.844;2023-08-20T08:40:43;98286.44;;;28.10;64.96
50790;BME280;37287;47.554;7.844;2023-08-20T08:43:10;98287.53;;;28.39;63.71
50790;BME280;37287;47.554;7.844;2023-08-20T08:45:47;98284.09;;;28.64;62.45
50790;BME280;37287;47.554;7.844;2023-08-20T08:48:15;98278.66;;;28.76;61.54
50790;BME280;37287;47.554;7.844;2023-08-20T08:50:42;98289.25;;;28.72;62.50
50790;BME280;37287;47.554;7.844;2023-08-20T08:53:15;98280.03;;;28.65;62.81
50790;BME280;37287;47.554;7.844;2023-08-20T08:55:42;98281.69;;;28.78;63.04
50790;BME280;37287;47.554;7.844;2023-08-20T08:58:09;98285.84;;;28.88;62.99
50790;BME280;37287;47.554;7.844;2023-08-20T09:00:37;98275.25;;;28.92;62.56
50790;BME280;37287;47.554;7.844;2023-08-20T09:03:06;98280.81;;;28.92;62.80
50790;BME280;37287;47.554;7.844;2023-08-20T09:05:45;98281.00;;;28.83;62.29
50790;BME280;37287;47.554;7.844;2023-08-20T09:08:21;98275.25;;;28.92;61.72
50790;BME280;37287;47.554;7.844;2023-08-20T09:10:52;98283.31;;;29.16;61.25
50790;BME280;37287;47.554;7.844;2023-08-20T09:13:41;98283.13;;;29.20;59.78
50790;BME280;37287;47.554;7.844;2023-08-20T09:16:11;98274.50;;;28.92;63.53
50790;BME280;37287;47.554;7.844;2023-08-20T09:18:44;98276.75;;;29.20;62.01
50790;BME280;37287;47.554;7.844;2023-08-20T09:21:12;98265.88;;;29.48;61.03
50790;BME280;37287;47.554;7.844;2023-08-20T09:23:45;98269.28;;;29.63;60.12
50790;BME280;37287;47.554;7.844;2023-08-20T09:26:13;98273.81;;;29.55;61.14
50790;BME280;37287;47.554;7.844;2023-08-20T09:28:42;98280.00;;;29.39;62.24
50790;BME280;37287;47.554;7.844;2023-08-20T09:31:13;98275.91;;;29.08;62.33
50790;BME280;37287;47.554;7.844;2023-08-20T09:33:53;98274.75;;;28.94;61.11
50790;BME280;37287;47.554;7.844;2023-08-20T09:36:30;98272.19;;;28.90;62.22
50790;BME280;37287;47.554;7.844;2023-08-20T09:38:57;98285.38;;;29.16;62.57
50790;BME280;37287;47.554;7.844;2023-08-20T09:41:26;98276.72;;;29.40;61.14
50790;BME280;37287;47.554;7.844;2023-08-20T09:43:56;98291.41;;;29.41;61.34
50790;BME280;37287;47.554;7.844;2023-08-20T09:46:25;98280.81;;;29.19;62.22
50790;BME280;37287;47.554;7.844;2023-08-20T09:48:56;98277.09;;;29.01;63.71
50790;BME280;37287;47.554;7.844;2023-08-20T09:51:29;98277.13;;;29.27;62.53
50790;BME280;37287;47.554;7.844;2023-08-20T09:54:12;98279.56;;;29.46;61.91
50790;BME280;37287;47.554;7.844;2023-08-20T09:56:42;98277.38;;;29.61;61.59
50790;BME280;37287;47.554;7.844;2023-08-20T09:59:10;98283.28;;;29.75;61.53
50790;BME280;37287;47.554;7.844;2023-08-20T10:01:39;98278.19;;;30.05;59.46
50790;BME280;37287;47.554;7.844;2023-08-20T10:04:06;98274.69;;;30.10;59.92
50790;BME280;37287;47.554;7.844;2023-08-20T10:06:35;98269.16;;;30.27;59.50
50790;BME280;37287;47.554;7.844;2023-08-20T10:09:03;98268.47;;;30.44;58.37
50790;BME280;37287;47.554;7.844;2023-08-20T10:11:30;98268.50;;;30.55;58.40
50790;BME280;37287;47.554;7.844;2023-08-20T10:14:01;98273.41;;;30.72;57.62
50790;BME280;37287;47.554;7.844;2023-08-20T10:16:28;98266.06;;;30.85;56.56
50790;BME280;37287;47.554;7.844;2023-08-20T10:18:55;98272.88;;;30.67;57.08
50790;BME280;37287;47.554;7.844;2023-08-20T10:21:26;98269.03;;;30.59;57.50
50790;BME280;37287;47.554;7.844;2023-08-20T10:23:53;98267.03;;;30.60;57.35
50790;BME280;37287;47.554;7.844;2023-08-20T10:26:20;98263.50;;;30.82;57.32
50790;BME280;37287;47.554;7.844;2023-08-20T10:28:48;98265.31;;;30.96;56.42
50790;BME280;37287;47.554;7.844;2023-08-20T10:31:16;98259.69;;;30.85;55.79
50790;BME280;37287;47.554;7.844;2023-08-20T10:36:17;98251.38;;;31.19;54.96
50790;BME280;37287;47.554;7.844;2023-08-20T10:38:55;98257.97;;;31.21;54.67
50790;BME280;37287;47.554;7.844;2023-08-20T10:41:29;98250.63;;;31.18;54.50
50790;BME280;37287;47.554;7.844;2023-08-20T10:43:59;98248.31;;;31.28;53.59
50790;BME280;37287;47.554;7.844;2023-08-20T10:46:29;98244.25;;;31.41;53.32
50790;BME280;37287;47.554;7.844;2023-08-20T10:49:03;98247.28;;;31.43;53.68
50790;BME280;37287;47.554;7.844;2023-08-20T10:51:35;98236.63;;;31.58;52.96
50790;BME280;37287;47.554;7.844;2023-08-20T10:54:05;98240.94;;;31.59;53.92
50790;BME280;37287;47.554;7.844;2023-08-20T10:56:46;98234.56;;;31.76;53.53
50790;BME280;37287;47.554;7.844;2023-08-20T10:59:25;98237.34;;;31.53;51.32
50790;BME280;37287;47.554;7.844;2023-08-20T11:01:58;98228.22;;;31.58;53.70
50790;BME280;37287;47.554;7.844;2023-08-20T11:04:28;98236.06;;;31.77;52.17
50790;BME280;37287;47.554;7.844;2023-08-20T11:06:56;98237.81;;;31.85;52.13
50790;BME280;37287;47.554;7.844;2023-08-20T11:09:27;98229.25;;;31.61;51.77
50790;BME280;37287;47.554;7.844;2023-08-20T11:11:55;98227.09;;;31.95;51.15
50790;BME280;37287;47.554;7.844;2023-08-20T11:14:22;98235.94;;;32.22;50.85
50790;BME280;37287;47.554;7.844;2023-08-20T11:16:51;98233.59;;;32.37;49.75
50790;BME280;37287;47.554;7.844;2023-08-20T11:19:22;98228.41;;;32.53;46.33
50790;BME280;37287;47.554;7.844;2023-08-20T11:21:56;98228.66;;;32.55;48.36
50790;BME280;37287;47.554;7.844;2023-08-20T11:24:23;98233.69;;;32.68;47.69
50790;BME280;37287;47.554;7.844;2023-08-20T11:26:49;98230.88;;;32.73;47.99
50790;BME280;37287;47.554;7.844;2023-08-20T11:29:17;98219.31;;;32.83;48.61
50790;BME280;37287;47.554;7.844;2023-08-20T11:31:50;98230.31;;;32.81;48.16
50790;BME280;37287;47.554;7.844;2023-08-20T11:34:20;98220.47;;;33.04;47.46
50790;BME280;37287;47.554;7.844;2023-08-20T11:36:49;98208.09;;;32.83;48.42
50790;BME280;37287;47.554;7.844;2023-08-20T11:39:16;98214.84;;;32.63;49.22
50790;BME280;37287;47.554;7.844;2023-08-20T11:41:43;98211.25;;;32.68;48.85
50790;BME280;37287;47.554;7.844;2023-08-20T11:44:19;98216.22;;;32.92;45.93
50790;BME280;37287;47.554;7.844;2023-08-20T11:46:48;98214.69;;;32.91;47.63
50790;BME280;37287;47.554;7.844;2023-08-20T11:49:26;98213.16;;;32.90;46.13
50790;BME280;37287;47.554;7.844;2023-08-20T11:51:55;98206.56;;;32.87;48.40
50790;BME280;37287;47.554;7.844;2023-08-20T11:54:22;98209.69;;;33.08;47.92
50790;BME280;37287;47.554;7.844;2023-08-20T11:56:50;98203.69;;;33.29;47.15
50790;BME280;37287;47.554;7.844;2023-08-20T11:59:18;98201.03;;;33.42;46.97
50790;BME280;37287;47.554;7.844;2023-08-20T12:01:56;98203.00;;;33.48;45.92
50790;BME280;37287;47.554;7.844;2023-08-20T12:04:25;98195.53;;;33.31;47.22
50790;BME280;37287;47.554;7.844;2023-08-20T12:09:32;98186.69;;;33.16;47.47
50790;BME280;37287;47.554;7.844;2023-08-20T12:12:00;98189.66;;;33.29;47.10
50790;BME280;37287;47.554;7.844;2023-08-20T12:14:27;98185.63;;;33.49;46.46
50790;BME280;37287;47.554;7.844;2023-08-20T12:16:54;98185.13;;;33.75;45.18
50790;BME280;37287;47.554;7.844;2023-08-20T12:19:24;98183.41;;;33.91;44.81
50790;BME280;37287;47.554;7.844;2023-08-20T12:21:54;98166.69;;;33.80;45.34
50790;BME280;37287;47.554;7.844;2023-08-20T12:24:20;98175.47;;;33.71;45.82
50790;BME280;37287;47.554;7.844;2023-08-20T12:26:47;98176.25;;;33.90;45.75
50790;BME280;37287;47.554;7.844;2023-08-20T12:29:14;98172.19;;;34.10;44.59
50790;BME280;37287;47.554;7.844;2023-08-20T12:31:41;98174.69;;;33.95;44.97
50790;BME280;37287;47.554;7.844;2023-08-20T12:34:10;98168.75;;;33.80;44.49
50790;BME280;37287;47.554;7.844;2023-08-20T12:36:37;98175.28;;;33.88;44.06
50790;BME280;37287;47.554;7.844;2023-08-20T12:39:04;98167.25;;;33.73;44.38
50790;BME280;37287;47.554;7.844;2023-08-20T12:41:31;98169.53;;;33.74;44.37
50790;BME280;37287;47.554;7.844;2023-08-20T12:44:00;98160.41;;;33.93;43.00
50790;BME280;37287;47.554;7.844;2023-08-20T12:46:29;98159.66;;;33.92;43.50
50790;BME280;37287;47.554;7.844;2023-08-20T12:48:56;98155.03;;;34.14;43.08
50790;BME280;37287;47.554;7.844;2023-08-20T12:51:27;98159.28;;;34.21;43.03
50790;BME280;37287;47.554;7.844;2023-08-20T12:53:53;98156.63;;;34.09;43.21
50790;BME280;37287;47.554;7.844;2023-08-20T12:56:22;98157.69;;;34.06;43.57
50790;BME280;37287;47.554;7.844;2023-08-20T12:58:49;98158.75;;;34.03;43.49
50790;BME280;37287;47.554;7.844;2023-08-20T13:01:15;98153.09;;;33.84;43.95
50790;BME280;37287;47.554;7.844;2023-08-20T13:03:43;98149.41;;;33.95;43.77
50790;BME280;37287;47.554;7.844;2023-08-20T13:06:10;98143.84;;;34.08;43.81
50790;BME280;37287;47.554;7.844;2023-08-20T13:08:40;98151.91;;;34.18;43.09
50790;BME280;37287;47.554;7.844;2023-08-20T13:11:09;98147.66;;;33.92;43.54
50790;BME280;37287;47.554;7.844;2023-08-20T13:13:38;98143.78;;;33.95;43.56
50790;BME280;37287;47.554;7.844;2023-08-20T13:16:05;98137.63;;;33.97;43.70